createdAt,value
2019-05-01T00:00:24.221Z,7.20
2019-05-01T00:02:56.968Z,6.80
2019-05-01T00:05:28.411Z,6.42
2019-05-01T00:07:58.035Z,6.15
2019-05-01T00:10:27.956Z,6.60
2019-05-01T00:12:57.670Z,8.15
2019-05-01T00:15:29.200Z,6.75
2019-05-01T00:17:58.931Z,7.90
2019-05-01T00:20:28.743Z,7.53
2019-05-01T00:22:59.032Z,4.95
2019-05-01T00:25:28.754Z,4.78
2019-05-01T00:27:58.325Z,6.92
2019-05-01T00:30:30.379Z,6.80
2019-05-01T00:33:00.056Z,6.35
2019-05-01T00:35:29.770Z,6.90
2019-05-01T00:37:59.402Z,5.97
2019-05-01T00:40:29.088Z,6.12
2019-05-01T00:42:58.731Z,5.78
2019-05-01T00:45:28.277Z,5.00
2019-05-01T00:47:57.928Z,5.30
2019-05-01T00:50:27.511Z,4.62
2019-05-01T00:52:57.135Z,4.97
2019-05-01T00:55:40.283Z,5.97
2019-05-01T00:58:20.610Z,4.30
2019-05-01T01:01:08.070Z,4.37
2019-05-01T01:03:38.769Z,5.95
2019-05-01T01:06:09.507Z,5.35
2019-05-01T01:08:39.065Z,4.37
2019-05-01T01:11:08.927Z,6.80
2019-05-01T01:13:38.556Z,6.20
2019-05-01T01:16:08.262Z,5.12
2019-05-01T01:18:37.821Z,4.60
2019-05-01T01:21:07.449Z,4.12
2019-05-01T01:23:37.375Z,3.90
2019-05-01T01:26:07.172Z,4.60
2019-05-01T01:28:36.930Z,3.50
2019-05-01T01:31:06.435Z,3.75
2019-05-01T01:33:36.062Z,4.87
2019-05-01T01:36:05.688Z,4.42
2019-05-01T01:38:35.335Z,5.87
2019-05-01T01:41:05.149Z,4.42
2019-05-01T01:43:39.358Z,3.42
2019-05-01T01:46:27.397Z,3.40
2019-05-01T01:48:57.583Z,3.35
2019-05-01T01:51:27.951Z,4.92
2019-05-01T01:53:58.960Z,4.72
2019-05-01T01:56:28.656Z,2.67
2019-05-01T01:58:58.458Z,3.27
2019-05-01T02:01:32.556Z,3.20
2019-05-01T02:04:06.544Z,2.87
2019-05-01T02:06:36.400Z,3.90
2019-05-01T02:09:07.913Z,3.60
2019-05-01T02:11:39.365Z,4.08
2019-05-01T02:14:09.064Z,4.65
2019-05-01T02:16:38.608Z,4.22
2019-05-01T02:19:08.251Z,3.30
2019-05-01T02:21:37.916Z,4.97
2019-05-01T02:24:07.527Z,3.12
2019-05-01T02:26:39.078Z,5.45
2019-05-01T02:29:10.460Z,3.75
2019-05-01T02:31:45.123Z,2.98
2019-05-01T02:34:16.125Z,4.33
2019-05-01T02:36:47.519Z,3.17
2019-05-01T02:39:19.077Z,3.58
2019-05-01T02:41:51.802Z,3.05
2019-05-01T02:44:30.321Z,2.02
2019-05-01T02:47:03.147Z,3.30
2019-05-01T02:49:35.725Z,6.20
2019-05-01T02:52:08.039Z,2.60
2019-05-01T02:54:39.053Z,2.37
2019-05-01T02:57:14.442Z,3.25
2019-05-01T02:59:47.232Z,4.03
2019-05-01T03:02:17.674Z,4.60
2019-05-01T03:04:47.887Z,2.70
2019-05-01T03:07:18.143Z,3.22
2019-05-01T03:09:49.129Z,2.27
2019-05-01T03:12:21.777Z,2.17
2019-05-01T03:14:54.584Z,2.47
2019-05-01T03:17:42.403Z,2.00
2019-05-01T03:20:14.678Z,3.72
2019-05-01T03:22:45.887Z,2.60
2019-05-01T03:25:15.632Z,1.82
2019-05-01T03:27:45.515Z,2.27
2019-05-01T03:30:15.289Z,2.08
2019-05-01T03:32:45.449Z,2.20
2019-05-01T03:35:15.368Z,2.58
2019-05-01T03:37:45.199Z,3.42
2019-05-01T03:40:15.199Z,3.22
2019-05-01T03:42:45.148Z,2.70
2019-05-01T03:45:15.237Z,3.17
2019-05-01T03:47:45.487Z,4.67
2019-05-01T03:50:15.271Z,3.30
2019-05-01T03:52:45.084Z,2.83
2019-05-01T03:55:14.983Z,2.00
2019-05-01T03:57:44.608Z,3.42
2019-05-01T04:00:18.736Z,5.03
2019-05-01T04:02:50.093Z,2.33
2019-05-01T04:05:19.849Z,3.67
2019-05-01T04:07:49.487Z,2.72
2019-05-01T04:10:19.298Z,6.22
2019-05-01T04:12:49.211Z,8.53
2019-05-01T04:15:18.934Z,3.15
2019-05-01T04:17:50.313Z,2.62
2019-05-01T04:20:20.389Z,6.05
2019-05-01T04:22:50.201Z,6.28
2019-05-01T04:25:20.117Z,2.80
2019-05-01T04:27:51.567Z,3.22
2019-05-01T04:30:28.852Z,5.70
2019-05-01T04:33:00.417Z,3.50
2019-05-01T04:35:49.742Z,7.30
2019-05-01T04:38:19.698Z,2.87
2019-05-01T04:40:49.631Z,3.27
2019-05-01T04:43:19.405Z,2.40
2019-05-01T04:45:49.448Z,2.50
2019-05-01T04:48:19.249Z,3.62
2019-05-01T04:50:49.042Z,2.83
2019-05-01T04:53:18.986Z,2.85
2019-05-01T04:55:48.690Z,3.33
2019-05-01T04:58:18.513Z,6.78
2019-05-01T05:00:48.519Z,4.58
2019-05-01T05:03:22.404Z,3.62
2019-05-01T05:05:51.958Z,3.10
2019-05-01T05:08:22.055Z,5.53
2019-05-01T05:10:53.709Z,5.95
2019-05-01T05:13:25.154Z,4.33
2019-05-01T05:15:59.511Z,3.90
2019-05-01T05:18:29.413Z,5.42
2019-05-01T05:20:59.833Z,3.58
2019-05-01T05:23:30.067Z,5.37
2019-05-01T05:26:00.187Z,3.52
2019-05-01T05:28:31.381Z,3.55
2019-05-01T05:31:01.964Z,5.85
2019-05-01T05:33:34.074Z,6.33
2019-05-01T05:36:05.470Z,5.75
2019-05-01T05:38:41.761Z,5.33
2019-05-01T05:41:11.937Z,5.97
2019-05-01T05:43:41.787Z,3.70
2019-05-01T05:46:12.194Z,3.25
2019-05-01T05:48:43.052Z,6.45
2019-05-01T05:51:22.049Z,5.28
2019-05-01T05:53:55.069Z,5.58
2019-05-01T05:56:28.410Z,8.80
2019-05-01T05:59:02.344Z,4.65
2019-05-01T06:01:44.538Z,7.80
2019-05-01T06:04:18.745Z,7.85
2019-05-01T06:06:57.752Z,7.10
2019-05-01T06:09:32.190Z,3.22
2019-05-01T06:12:12.908Z,4.28
2019-05-01T06:14:48.952Z,5.37
2019-05-01T06:17:29.857Z,4.20
2019-05-01T06:20:20.788Z,4.17
2019-05-01T06:23:08.304Z,6.08
2019-05-01T06:25:44.807Z,6.47
2019-05-01T06:28:15.110Z,3.70
2019-05-01T06:30:47.030Z,4.25
2019-05-01T06:33:16.104Z,4.60
2019-05-01T06:35:45.835Z,4.92
2019-05-01T06:38:17.359Z,3.17
2019-05-01T06:40:53.149Z,3.85
2019-05-01T06:43:39.864Z,5.53
2019-05-01T06:46:12.802Z,5.10
2019-05-01T06:48:53.430Z,3.08
2019-05-01T06:51:35.218Z,2.83
2019-05-01T06:54:11.177Z,3.83
2019-05-01T06:59:09.105Z,2.60
2019-05-01T07:01:39.439Z,3.05
2019-05-01T07:04:09.151Z,4.58
2019-05-01T07:06:38.994Z,4.78
2019-05-01T07:09:11.845Z,2.90
2019-05-01T07:11:47.471Z,3.33
2019-05-01T07:14:16.413Z,6.17
2019-05-01T07:16:46.467Z,5.08
2019-05-01T07:19:17.780Z,5.75
2019-05-01T07:21:47.400Z,8.08
2019-05-01T07:24:18.222Z,5.67
2019-05-01T07:26:49.159Z,5.22
2019-05-01T07:29:23.030Z,4.22
2019-05-01T07:31:52.751Z,5.00
2019-05-01T07:34:26.221Z,4.37
2019-05-01T07:36:53.682Z,5.08
2019-05-01T07:39:23.315Z,3.10
2019-05-01T07:41:54.662Z,6.65
2019-05-01T07:44:30.067Z,4.25
2019-05-01T07:47:10.775Z,5.62
2019-05-01T07:49:52.866Z,3.87
2019-05-01T07:52:21.859Z,3.92
2019-05-01T07:54:52.180Z,3.80
2019-05-01T07:57:23.122Z,4.92
2019-05-01T07:59:53.221Z,4.30
2019-05-01T08:02:25.922Z,7.10
2019-05-01T08:04:54.309Z,4.75
2019-05-01T08:07:27.777Z,3.92
2019-05-01T08:09:55.119Z,5.12
2019-05-01T08:12:25.874Z,6.58
2019-05-01T08:14:56.760Z,4.25
2019-05-01T08:17:28.087Z,3.92
2019-05-01T08:19:59.293Z,4.87
2019-05-01T08:22:32.044Z,4.00
2019-05-01T08:25:01.716Z,5.15
2019-05-01T08:27:50.915Z,5.22
2019-05-01T08:30:30.794Z,4.55
2019-05-01T08:33:05.030Z,4.20
2019-05-01T08:35:36.399Z,5.17
2019-05-01T08:38:06.629Z,6.17
2019-05-01T08:40:37.342Z,6.47
2019-05-01T08:43:07.070Z,4.33
2019-05-01T08:45:44.943Z,5.83
2019-05-01T08:48:25.232Z,7.03
2019-05-01T08:50:59.209Z,6.92
2019-05-01T08:53:27.551Z,6.70
2019-05-01T08:55:57.261Z,5.70
2019-05-01T08:58:26.848Z,6.45
2019-05-01T09:00:56.346Z,7.60
2019-05-01T09:03:25.984Z,5.58
2019-05-01T09:05:57.531Z,9.68
2019-05-01T09:08:31.504Z,11.33
2019-05-01T09:11:00.229Z,7.45
2019-05-01T09:13:29.432Z,8.48
2019-05-01T09:15:59.313Z,6.42
2019-05-01T09:18:28.873Z,8.45
2019-05-01T09:20:58.531Z,7.17
2019-05-01T09:23:28.243Z,7.78
2019-05-01T09:26:14.815Z,9.75
2019-05-01T09:29:01.402Z,7.33
2019-05-01T09:31:33.990Z,5.70
2019-05-01T09:34:05.488Z,8.98
2019-05-01T09:36:35.500Z,6.58
2019-05-01T09:39:06.775Z,8.05
2019-05-01T09:41:38.308Z,8.58
2019-05-01T09:44:10.699Z,10.63
2019-05-01T09:46:40.268Z,8.18
2019-05-01T09:49:14.191Z,9.78
2019-05-01T09:52:01.138Z,10.40
2019-05-01T09:54:32.360Z,8.90
2019-05-01T09:57:02.812Z,11.68
2019-05-01T09:59:32.449Z,13.40
2019-05-01T10:02:02.929Z,16.02
2019-05-01T10:04:33.427Z,13.05
2019-05-01T10:07:03.007Z,16.02
2019-05-01T10:09:32.661Z,13.05
2019-05-01T10:12:02.379Z,12.47
2019-05-01T10:14:36.265Z,11.10
2019-05-01T10:17:03.261Z,14.98
2019-05-01T10:19:32.879Z,14.93
2019-05-01T10:22:03.786Z,10.45
2019-05-01T10:24:37.497Z,9.73
2019-05-01T10:27:06.572Z,10.48
2019-05-01T10:29:56.990Z,10.90
2019-05-01T10:32:27.906Z,11.90
2019-05-01T10:35:01.689Z,9.38
2019-05-01T10:37:33.876Z,10.18
2019-05-01T10:40:02.823Z,12.18
2019-05-01T10:42:32.512Z,10.60
2019-05-01T10:45:02.107Z,11.97
2019-05-01T10:47:31.754Z,12.70
2019-05-01T10:50:01.376Z,11.03
2019-05-01T10:52:32.308Z,9.95
2019-05-01T10:55:01.803Z,9.88
2019-05-01T10:57:35.207Z,12.68
2019-05-01T11:00:02.711Z,10.45
2019-05-01T11:02:33.535Z,10.85
2019-05-01T11:05:03.238Z,9.23
2019-05-01T11:07:32.806Z,12.60
2019-05-01T11:10:02.470Z,10.90
2019-05-01T11:12:32.201Z,11.50
2019-05-01T11:15:02.609Z,11.10
2019-05-01T11:17:32.313Z,12.37
2019-05-01T11:20:02.335Z,14.05
2019-05-01T11:22:35.455Z,14.50
2019-05-01T11:25:07.120Z,12.33
2019-05-01T11:27:38.252Z,9.58
2019-05-01T11:30:08.271Z,11.80
2019-05-01T11:32:39.533Z,12.90
2019-05-01T11:35:16.684Z,12.75
2019-05-01T11:37:48.025Z,12.73
2019-05-01T11:40:34.422Z,10.38
2019-05-01T11:43:04.338Z,11.20
2019-05-01T11:45:34.152Z,10.00
2019-05-01T11:48:03.917Z,12.53
2019-05-01T11:50:33.955Z,11.12
2019-05-01T11:53:03.637Z,9.90
2019-05-01T11:55:33.667Z,10.58
2019-05-01T11:58:03.520Z,11.33
2019-05-01T12:00:33.151Z,10.85
2019-05-01T12:03:02.735Z,11.73
2019-05-01T12:05:34.973Z,12.93
2019-05-01T12:08:04.680Z,10.48
2019-05-01T12:10:34.465Z,7.90
2019-05-01T12:13:04.245Z,11.18
2019-05-01T12:15:34.050Z,8.33
2019-05-01T12:18:04.819Z,12.33
2019-05-01T12:20:36.133Z,10.50
2019-05-01T12:23:05.761Z,9.13
2019-05-01T12:25:35.565Z,12.68
2019-05-01T12:28:05.178Z,12.05
2019-05-01T12:30:35.246Z,9.43
2019-05-01T12:33:04.994Z,9.35
2019-05-01T12:35:34.551Z,10.40
2019-05-01T12:38:05.134Z,10.95
2019-05-01T12:40:34.774Z,12.78
2019-05-01T12:43:04.557Z,9.95
2019-05-01T12:45:35.903Z,12.03
2019-05-01T12:48:05.720Z,10.90
2019-05-01T12:50:35.408Z,9.28
2019-05-01T12:53:06.714Z,10.28
2019-05-01T12:55:50.052Z,7.72
2019-05-01T12:58:19.561Z,7.55
2019-05-01T13:00:54.478Z,10.63
2019-05-01T13:03:24.053Z,11.65
2019-05-01T13:05:53.655Z,10.23
2019-05-01T13:08:23.226Z,12.37
2019-05-01T13:10:53.390Z,11.93
2019-05-01T13:13:23.022Z,11.00
2019-05-01T13:15:52.642Z,8.80
2019-05-01T13:18:22.277Z,10.68
2019-05-01T13:20:56.342Z,11.78
2019-05-01T13:23:23.194Z,9.38
2019-05-01T13:25:54.863Z,11.20
2019-05-01T13:28:43.895Z,11.22
2019-05-01T13:31:21.248Z,11.20
2019-05-01T13:33:50.890Z,11.78
2019-05-01T13:36:20.491Z,9.90
2019-05-01T13:38:50.189Z,11.53
2019-05-01T13:41:19.918Z,10.78
2019-05-01T13:43:50.526Z,9.30
2019-05-01T13:46:20.255Z,11.93
2019-05-01T13:48:50.391Z,9.23
2019-05-01T13:51:19.984Z,11.55
2019-05-01T13:53:49.532Z,9.20
2019-05-01T13:56:19.376Z,9.08
2019-05-01T13:58:50.338Z,8.30
2019-05-01T14:01:20.257Z,8.70
2019-05-01T14:03:50.471Z,9.25
2019-05-01T14:06:20.211Z,9.25
2019-05-01T14:08:49.890Z,8.48
2019-05-01T14:11:19.381Z,8.23
2019-05-01T14:13:49.087Z,11.68
2019-05-01T14:16:18.799Z,7.62
2019-05-01T14:18:48.426Z,8.68
2019-05-01T14:21:32.479Z,9.30
2019-05-01T14:24:20.165Z,7.58
2019-05-01T14:26:49.790Z,11.12
2019-05-01T14:29:19.524Z,11.08
2019-05-01T14:31:49.240Z,7.30
2019-05-01T14:34:18.877Z,7.40
2019-05-01T14:36:48.496Z,11.00
2019-05-01T14:39:18.061Z,10.00
2019-05-01T14:41:47.804Z,7.83
2019-05-01T14:44:17.399Z,9.60
2019-05-01T14:46:47.090Z,8.75
2019-05-01T14:49:16.653Z,7.97
2019-05-01T14:51:46.341Z,10.03
2019-05-01T14:54:15.885Z,12.20
2019-05-01T14:56:46.664Z,10.90
2019-05-01T14:59:16.352Z,9.48
2019-05-01T15:01:47.298Z,11.12
2019-05-01T15:04:17.244Z,7.40
2019-05-01T15:06:46.905Z,7.80
2019-05-01T15:09:16.530Z,10.00
2019-05-01T15:11:46.350Z,8.55
2019-05-01T15:14:17.571Z,11.48
2019-05-01T15:16:51.632Z,8.30
2019-05-01T15:19:22.951Z,8.20
2019-05-01T15:21:52.575Z,7.53
2019-05-01T15:24:22.124Z,9.00
2019-05-01T15:26:53.409Z,10.35
2019-05-01T15:29:22.962Z,8.23
2019-05-01T15:31:52.730Z,9.15
2019-05-01T15:34:22.333Z,9.53
2019-05-01T15:36:52.053Z,6.87
2019-05-01T15:39:23.244Z,9.23
2019-05-01T15:42:03.759Z,8.68
2019-05-01T15:44:34.950Z,9.18
2019-05-01T15:47:05.104Z,6.70
2019-05-01T15:49:35.037Z,6.08
2019-05-01T15:52:04.956Z,7.22
2019-05-01T15:54:34.671Z,7.55
2019-05-01T15:57:04.986Z,7.37
2019-05-01T15:59:34.688Z,6.95
2019-05-01T16:02:04.511Z,9.38
2019-05-01T16:04:34.068Z,9.03
2019-05-01T16:07:03.728Z,8.45
2019-05-01T16:09:33.544Z,9.78
2019-05-01T16:12:16.669Z,7.22
2019-05-01T16:14:46.787Z,7.62
2019-05-01T16:17:16.500Z,10.20
2019-05-01T16:19:46.342Z,7.08
2019-05-01T16:22:15.875Z,9.18
2019-05-01T16:24:45.530Z,9.40
2019-05-01T16:27:15.096Z,14.83
2019-05-01T16:29:44.843Z,10.93
2019-05-01T16:32:14.563Z,10.82
2019-05-01T16:34:44.260Z,6.87
2019-05-01T16:37:13.890Z,7.70
2019-05-01T16:39:50.751Z,6.45
2019-05-01T16:42:20.708Z,9.88
2019-05-01T16:44:50.376Z,14.25
2019-05-01T16:47:20.008Z,9.28
2019-05-01T16:49:49.632Z,8.63
2019-05-01T16:52:21.078Z,8.13
2019-05-01T16:54:58.973Z,6.85
2019-05-01T16:57:21.956Z,10.63
2019-05-01T16:59:51.602Z,7.65
2019-05-01T17:02:41.135Z,6.00
2019-05-01T17:05:18.471Z,9.78
2019-05-01T17:07:49.678Z,14.63
2019-05-01T17:10:22.129Z,7.75
2019-05-01T17:12:54.446Z,9.75
2019-05-01T17:15:26.240Z,8.53
2019-05-01T17:17:55.810Z,8.30
2019-05-01T17:20:25.935Z,7.28
2019-05-01T17:22:55.895Z,9.23
2019-05-01T17:25:26.400Z,9.35
2019-05-01T17:27:57.788Z,9.35
2019-05-01T17:30:39.538Z,9.30
2019-05-01T17:33:09.485Z,7.15
2019-05-01T17:35:41.849Z,6.53
2019-05-01T17:38:10.445Z,8.18
2019-05-01T17:40:41.142Z,8.25
2019-05-01T17:43:15.483Z,9.40
2019-05-01T17:45:46.439Z,5.55
2019-05-01T17:48:16.210Z,9.40
2019-05-01T17:50:45.917Z,9.23
2019-05-01T17:53:15.562Z,11.18
2019-05-01T17:55:45.170Z,8.10
2019-05-01T17:58:14.692Z,13.43
2019-05-01T18:00:54.702Z,11.43
2019-05-01T18:03:42.321Z,6.55
2019-05-01T18:06:30.920Z,8.83
2019-05-01T18:09:03.304Z,8.43
2019-05-01T18:11:35.709Z,9.33
2019-05-01T18:14:05.999Z,10.43
2019-05-01T18:16:35.758Z,13.22
2019-05-01T18:19:09.775Z,8.53
2019-05-01T18:21:39.129Z,13.60
2019-05-01T18:24:26.913Z,13.80
2019-05-01T18:26:58.483Z,6.45
2019-05-01T18:29:44.647Z,11.80
2019-05-01T18:32:16.695Z,9.18
2019-05-01T18:34:46.437Z,12.40
2019-05-01T18:37:17.781Z,14.18
2019-05-01T18:39:48.347Z,9.98
2019-05-01T18:42:18.569Z,11.75
2019-05-01T18:44:48.902Z,12.33
2019-05-01T18:47:19.899Z,13.88
2019-05-01T18:49:49.777Z,13.18
2019-05-01T18:52:20.215Z,11.00
2019-05-01T18:54:49.857Z,10.72
2019-05-01T18:57:19.468Z,12.13
2019-05-01T18:59:49.373Z,14.30
2019-05-01T19:02:20.569Z,14.15
2019-05-01T19:04:50.329Z,12.78
2019-05-01T19:07:22.261Z,13.55
2019-05-01T19:09:53.501Z,15.35
2019-05-01T19:12:23.251Z,15.03
2019-05-01T19:14:54.604Z,17.02
2019-05-01T19:17:24.211Z,17.07
2019-05-01T19:19:55.861Z,15.65
2019-05-01T19:22:26.166Z,23.38
2019-05-01T19:24:57.226Z,17.90
2019-05-01T19:27:26.963Z,19.62
2019-05-01T19:29:57.997Z,13.10
2019-05-01T19:32:28.508Z,18.27
2019-05-01T19:34:58.591Z,14.98
2019-05-01T19:37:30.911Z,15.03
2019-05-01T19:40:00.924Z,13.65
2019-05-01T19:42:30.873Z,14.78
2019-05-01T19:45:01.651Z,15.78
2019-05-01T19:47:31.687Z,16.75
2019-05-01T19:50:07.256Z,14.87
2019-05-01T19:52:37.791Z,25.02
2019-05-01T19:55:08.687Z,16.42
2019-05-01T19:57:38.287Z,19.27
2019-05-01T20:00:08.383Z,15.18
2019-05-01T20:02:39.678Z,21.37
2019-05-01T20:05:11.180Z,17.48
2019-05-01T20:07:41.085Z,18.40
2019-05-01T20:10:11.164Z,16.00
2019-05-01T20:12:41.624Z,18.60
2019-05-01T20:15:11.473Z,18.70
2019-05-01T20:17:41.101Z,17.73
2019-05-01T20:20:11.061Z,15.83
2019-05-01T20:22:40.603Z,14.07
2019-05-01T20:25:10.336Z,15.65
2019-05-01T20:27:42.295Z,17.12
2019-05-01T20:30:11.495Z,15.13
2019-05-01T20:32:41.117Z,15.78
2019-05-01T20:35:11.241Z,12.68
2019-05-01T20:37:40.804Z,15.90
2019-05-01T20:40:11.639Z,14.47
2019-05-01T20:42:41.600Z,13.40
2019-05-01T20:45:17.517Z,17.37
2019-05-01T20:47:45.985Z,14.55
2019-05-01T20:50:14.248Z,16.37
2019-05-01T20:52:44.835Z,13.68
2019-05-01T20:55:14.891Z,14.50
2019-05-01T20:57:48.744Z,20.15
2019-05-01T21:00:20.787Z,15.40
2019-05-01T21:02:51.905Z,14.43
2019-05-01T21:05:23.258Z,15.13
2019-05-01T21:08:07.782Z,13.75
2019-05-01T21:10:50.724Z,12.90
2019-05-01T21:13:17.832Z,13.43
2019-05-01T21:15:47.549Z,14.25
2019-05-01T21:18:20.891Z,13.75
2019-05-01T21:20:48.499Z,14.83
2019-05-01T21:23:19.008Z,13.95
2019-05-01T21:25:49.562Z,16.65
2019-05-01T21:28:19.286Z,14.18
2019-05-01T21:30:48.939Z,14.93
2019-05-01T21:33:18.419Z,16.40
2019-05-01T21:35:48.010Z,14.78
2019-05-01T21:38:17.569Z,15.08
2019-05-01T21:40:47.142Z,13.93
2019-05-01T21:43:16.777Z,16.25
2019-05-01T21:45:46.337Z,17.02
2019-05-01T21:48:16.052Z,15.50
2019-05-01T21:50:45.661Z,16.27
2019-05-01T21:53:15.157Z,14.25
2019-05-01T21:55:44.980Z,13.62
2019-05-01T21:58:15.270Z,15.13
2019-05-01T22:00:45.298Z,15.60
2019-05-01T22:03:16.732Z,11.88
2019-05-01T22:05:46.583Z,15.48
2019-05-01T22:08:16.191Z,14.20
2019-05-01T22:10:52.191Z,13.78
2019-05-01T22:13:20.371Z,13.95
2019-05-01T22:16:05.724Z,13.20
2019-05-01T22:18:39.572Z,15.83
2019-05-01T22:21:25.940Z,17.20
2019-05-01T22:24:13.102Z,16.62
2019-05-01T22:26:44.309Z,20.20
2019-05-01T22:29:15.580Z,16.87
2019-05-01T22:31:57.548Z,16.77
2019-05-01T22:34:31.546Z,12.95
2019-05-01T22:37:01.318Z,15.00
2019-05-01T22:39:32.593Z,14.73
2019-05-01T22:42:02.297Z,13.38
2019-05-01T22:44:32.856Z,15.32
2019-05-01T22:47:02.745Z,13.68
2019-05-01T22:49:32.554Z,17.20
2019-05-01T22:52:02.263Z,15.90
2019-05-01T22:54:31.897Z,17.35
2019-05-01T22:57:01.512Z,18.27
2019-05-01T22:59:31.193Z,16.42
2019-05-01T23:02:02.465Z,15.48
2019-05-01T23:04:32.003Z,17.82
2019-05-01T23:07:01.700Z,14.05
2019-05-01T23:09:32.318Z,16.30
2019-05-01T23:12:02.017Z,15.00
2019-05-01T23:14:31.728Z,17.67
2019-05-01T23:17:11.964Z,16.77
2019-05-01T23:19:41.535Z,15.20
2019-05-01T23:22:11.304Z,15.32
2019-05-01T23:24:40.920Z,14.98
2019-05-01T23:27:10.415Z,15.35
2019-05-01T23:29:40.054Z,15.93
2019-05-01T23:32:09.716Z,14.07
2019-05-01T23:34:39.207Z,17.55
2019-05-01T23:37:08.899Z,14.30
2019-05-01T23:39:40.215Z,17.48
2019-05-01T23:42:09.810Z,17.77
2019-05-01T23:44:43.039Z,15.98
2019-05-01T23:47:10.842Z,13.95
2019-05-01T23:49:41.468Z,16.57
2019-05-01T23:52:11.104Z,17.37
2019-05-01T23:54:40.790Z,16.35
2019-05-01T23:57:10.446Z,14.35
2019-05-01T23:59:41.748Z,13.20
